createdAt,value
2023-03-05T00:00:12.091Z,101001.19
2023-03-05T00:02:43.513Z,101024.03
2023-03-05T00:05:14.800Z,101016.91
2023-03-05T00:07:46.704Z,101020.41
2023-03-05T00:10:18.207Z,101021.28
2023-03-05T00:12:49.469Z,101010.88
2023-03-05T00:15:20.741Z,101016.13
2023-03-05T00:17:52.068Z,101016.13
2023-03-05T00:20:23.421Z,101008.28
2023-03-05T00:22:54.675Z,101010.09
2023-03-05T00:25:25.941Z,101003.97
2023-03-05T00:27:57.217Z,101003.06
2023-03-05T00:30:28.499Z,101000.41
2023-03-05T00:32:59.920Z,101001.25
2023-03-05T00:35:31.397Z,100996.91
2023-03-05T00:38:02.799Z,100989.91
2023-03-05T00:40:38.316Z,100992.56
2023-03-05T00:43:10.079Z,100983.78
2023-03-05T00:45:41.459Z,100979.53
2023-03-05T00:48:12.757Z,100984.75
2023-03-05T00:50:44.064Z,100977.50
2023-03-05T00:53:15.350Z,100996.84
2023-03-05T00:55:46.744Z,100995.84
2023-03-05T00:58:18.255Z,100981.69
2023-03-05T01:00:52.451Z,100983.13
2023-03-05T01:03:23.704Z,100980.19
2023-03-05T01:05:55.049Z,100975.56
2023-03-05T01:08:26.861Z,100970.88
2023-03-05T01:10:58.215Z,100970.59
2023-03-05T01:13:29.498Z,100895.44
2023-03-05T01:16:01.259Z,100971.22
2023-03-05T01:18:32.682Z,100965.06
2023-03-05T01:21:04.610Z,100959.81
2023-03-05T01:23:37.272Z,100952.81
2023-03-05T01:26:09.469Z,100943.97
2023-03-05T01:28:40.795Z,100939.50
2023-03-05T01:31:12.514Z,100932.41
2023-03-05T01:33:44.109Z,100931.44
2023-03-05T01:36:16.721Z,100938.41
2023-03-05T01:38:48.065Z,100931.41
2023-03-05T01:41:20.929Z,100927.00
2023-03-05T01:43:52.928Z,100921.66
2023-03-05T01:46:37.323Z,100909.41
2023-03-05T01:49:17.388Z,100915.47
2023-03-05T01:51:56.310Z,100912.03
2023-03-05T01:54:33.612Z,100909.59
2023-03-05T01:57:10.926Z,100901.03
2023-03-05T01:59:45.776Z,100884.50
2023-03-05T02:02:18.586Z,100902.31
2023-03-05T02:05:02.315Z,100896.31
2023-03-05T02:07:37.152Z,100892.94
2023-03-05T02:10:15.716Z,100893.00
2023-03-05T02:12:49.082Z,100894.81
2023-03-05T02:15:20.660Z,100889.56
2023-03-05T02:17:52.156Z,100883.44
2023-03-05T02:20:26.463Z,100880.78
2023-03-05T02:22:58.807Z,100879.78
2023-03-05T02:25:30.851Z,100867.50
2023-03-05T02:28:25.614Z,100856.09
2023-03-05T02:30:57.280Z,100864.00
2023-03-05T02:33:28.595Z,100862.25
2023-03-05T02:35:59.956Z,100840.28
2023-03-05T02:38:31.891Z,100854.53
2023-03-05T02:41:03.386Z,100842.25
2023-03-05T02:43:35.057Z,100851.19
2023-03-05T02:46:07.316Z,100849.59
2023-03-05T02:48:38.638Z,100850.47
2023-03-05T02:51:10.534Z,100844.38
2023-03-05T02:53:41.830Z,100851.38
2023-03-05T02:56:13.376Z,100847.91
2023-03-05T02:58:44.707Z,100847.78
2023-03-05T03:01:15.986Z,100855.63
2023-03-05T03:03:47.360Z,100844.22
2023-03-05T03:06:18.652Z,100844.19
2023-03-05T03:08:49.960Z,100840.66
2023-03-05T03:11:21.350Z,100824.97
2023-03-05T03:13:52.999Z,100816.09
2023-03-05T03:16:24.304Z,100830.06
2023-03-05T03:18:55.597Z,100808.78
2023-03-05T03:21:27.225Z,100820.94
2023-03-05T03:23:58.508Z,100818.09
2023-03-05T03:26:30.438Z,100810.97
2023-03-05T03:29:01.720Z,100814.34
2023-03-05T03:31:32.992Z,100811.69
2023-03-05T03:34:04.257Z,100809.16
2023-03-05T03:36:35.531Z,100810.91
2023-03-05T03:39:06.875Z,100802.41
2023-03-05T03:41:42.209Z,100803.41
2023-03-05T03:44:14.043Z,100796.50
2023-03-05T03:46:46.801Z,100800.94
2023-03-05T03:49:21.097Z,100779.78
2023-03-05T03:51:54.544Z,100793.09
2023-03-05T03:54:25.888Z,100784.28
2023-03-05T03:56:57.160Z,100789.50
2023-03-05T03:59:28.478Z,100786.78
2023-03-05T04:01:59.797Z,100779.72
2023-03-05T04:04:31.156Z,100779.69
2023-03-05T04:07:02.488Z,100780.59
2023-03-05T04:09:33.761Z,100781.50
2023-03-05T04:12:05.606Z,100742.69
2023-03-05T04:14:37.056Z,100779.81
2023-03-05T04:17:09.053Z,100769.38
2023-03-05T04:19:40.477Z,100772.09
2023-03-05T04:22:14.088Z,100774.75
2023-03-05T04:24:45.464Z,100769.53
2023-03-05T04:27:16.747Z,100765.22
2023-03-05T04:29:48.072Z,100759.97
2023-03-05T04:32:23.068Z,100762.53
2023-03-05T04:34:54.445Z,100698.28
2023-03-05T04:37:26.135Z,100756.50
2023-03-05T04:39:57.428Z,100757.44
2023-03-05T04:42:28.691Z,100751.44
2023-03-05T04:44:59.982Z,100748.00
2023-03-05T04:47:31.322Z,100745.41
2023-03-05T04:50:06.728Z,100737.59
2023-03-05T04:52:40.615Z,100737.63
2023-03-05T04:55:13.272Z,100734.09
2023-03-05T04:57:44.854Z,100727.91
2023-03-05T05:00:16.914Z,100731.50
2023-03-05T05:02:49.820Z,100729.78
2023-03-05T05:05:23.852Z,100735.81
2023-03-05T05:07:56.678Z,100731.50
2023-03-05T05:10:28.227Z,100726.19
2023-03-05T05:12:59.511Z,100723.69
2023-03-05T05:15:32.154Z,100723.72
2023-03-05T05:18:03.574Z,100724.59
2023-03-05T05:20:34.841Z,100716.59
2023-03-05T05:23:06.144Z,100729.03
2023-03-05T05:25:37.411Z,100716.75
2023-03-05T05:28:10.365Z,100707.94
2023-03-05T05:30:41.682Z,100726.41
2023-03-05T05:33:12.960Z,100727.28
2023-03-05T05:35:44.255Z,100713.31
2023-03-05T05:38:15.603Z,100722.03
2023-03-05T05:40:46.853Z,100708.03
2023-03-05T05:43:18.124Z,100712.28
2023-03-05T05:45:49.610Z,100704.31
2023-03-05T05:48:21.736Z,100720.06
2023-03-05T05:50:53.069Z,100711.28
2023-03-05T05:53:24.802Z,100717.34
2023-03-05T05:55:56.320Z,100716.53
2023-03-05T05:58:27.638Z,100715.72
2023-03-05T06:00:59.007Z,100711.44
2023-03-05T06:03:30.408Z,100712.41
2023-03-05T06:06:01.818Z,100705.47
2023-03-05T06:08:33.204Z,100683.44
2023-03-05T06:11:05.125Z,100706.50
2023-03-05T06:13:36.558Z,100707.28
2023-03-05T06:16:11.942Z,100714.38
2023-03-05T06:18:43.679Z,100681.81
2023-03-05T06:21:17.096Z,100717.00
2023-03-05T06:23:49.160Z,100710.13
2023-03-05T06:26:22.225Z,100718.84
2023-03-05T06:28:53.734Z,100720.59
2023-03-05T06:31:27.276Z,100727.59
2023-03-05T06:34:03.139Z,100722.31
2023-03-05T06:36:34.496Z,100718.75
2023-03-05T06:39:06.284Z,100698.56
2023-03-05T06:41:37.569Z,100715.25
2023-03-05T06:44:09.833Z,100711.72
2023-03-05T06:46:41.113Z,100711.75
2023-03-05T06:49:12.440Z,100694.22
2023-03-05T06:51:43.728Z,100714.41
2023-03-05T06:54:16.498Z,100703.91
2023-03-05T06:56:47.868Z,100706.59
2023-03-05T06:59:19.286Z,100704.00
2023-03-05T07:01:50.648Z,100698.81
2023-03-05T07:04:24.046Z,100698.81
2023-03-05T07:06:55.780Z,100707.56
2023-03-05T07:09:27.241Z,100705.00
2023-03-05T07:11:58.595Z,100709.47
2023-03-05T07:14:29.992Z,100704.31
2023-03-05T07:17:01.302Z,100719.19
2023-03-05T07:19:32.895Z,100714.78
2023-03-05T07:22:04.192Z,100713.03
2023-03-05T07:24:35.929Z,100706.09
2023-03-05T07:27:07.335Z,100714.00
2023-03-05T07:29:38.644Z,100706.22
2023-03-05T07:32:09.972Z,100704.50
2023-03-05T07:34:41.276Z,100695.84
2023-03-05T07:37:13.733Z,100701.19
2023-03-05T07:39:47.112Z,100704.00
2023-03-05T07:42:18.653Z,100701.53
2023-03-05T07:44:50.085Z,100697.34
2023-03-05T07:47:23.211Z,100705.34
2023-03-05T07:49:54.473Z,100682.44
2023-03-05T07:52:25.884Z,100704.31
2023-03-05T07:54:57.256Z,100694.59
2023-03-05T07:57:28.766Z,100698.06
2023-03-05T08:00:00.145Z,100702.53
2023-03-05T08:02:31.470Z,100695.78
2023-03-05T08:05:02.844Z,100691.47
2023-03-05T08:07:34.140Z,100695.97
2023-03-05T08:10:06.157Z,100673.19
2023-03-05T08:12:37.497Z,100682.94
2023-03-05T08:15:09.222Z,100681.31
2023-03-05T08:17:40.479Z,100679.78
2023-03-05T08:20:12.556Z,100688.63
2023-03-05T08:22:43.832Z,100679.13
2023-03-05T08:25:15.137Z,100687.09
2023-03-05T08:27:47.848Z,100677.53
2023-03-05T08:30:22.267Z,100672.25
2023-03-05T08:32:54.484Z,100674.84
2023-03-05T08:35:25.944Z,100678.28
2023-03-05T08:37:57.354Z,100666.06
2023-03-05T08:40:28.736Z,100673.19
2023-03-05T08:43:00.028Z,100666.25
2023-03-05T08:45:31.317Z,100660.25
2023-03-05T08:48:02.705Z,100665.56
2023-03-05T08:50:38.880Z,100657.63
2023-03-05T08:53:10.414Z,100661.13
2023-03-05T08:55:44.092Z,100617.13
2023-03-05T08:58:15.626Z,100660.13
2023-03-05T09:00:46.988Z,100654.81
2023-03-05T09:03:19.352Z,100635.44
2023-03-05T09:05:51.936Z,100636.31
2023-03-05T09:08:23.479Z,100656.56
2023-03-05T09:10:54.993Z,100656.72
2023-03-05T09:13:26.571Z,100635.81
2023-03-05T09:16:00.574Z,100646.44
2023-03-05T09:18:32.180Z,100642.97
2023-03-05T09:21:08.335Z,100625.50
2023-03-05T09:23:40.892Z,100607.06
2023-03-05T09:26:13.867Z,100614.09
2023-03-05T09:28:46.935Z,100629.91
2023-03-05T09:31:18.770Z,100621.09
2023-03-05T09:33:50.340Z,100614.09
2023-03-05T09:36:24.920Z,100615.88
2023-03-05T09:38:56.457Z,100625.50
2023-03-05T09:41:46.062Z,100628.13
2023-03-05T09:44:38.959Z,100624.59
2023-03-05T09:47:44.199Z,100623.72
2023-03-05T09:50:39.039Z,100615.00
2023-03-05T09:53:28.462Z,100609.72
2023-03-05T09:56:04.593Z,100615.00
2023-03-05T09:58:40.155Z,100600.94
2023-03-05T10:01:18.803Z,100609.69
2023-03-05T10:04:01.709Z,100585.16
2023-03-05T10:06:44.887Z,100594.81
2023-03-05T10:09:49.058Z,100594.84
2023-03-05T10:12:43.404Z,100595.72
2023-03-05T10:15:20.828Z,100589.56
2023-03-05T10:18:26.027Z,100586.91
2023-03-05T10:21:36.821Z,100575.53
2023-03-05T10:24:19.395Z,100556.22
2023-03-05T10:27:07.957Z,100572.91
2023-03-05T10:30:04.773Z,100564.13
2023-03-05T10:32:46.813Z,100550.84
2023-03-05T10:35:32.603Z,100540.13
2023-03-05T10:38:17.234Z,100525.06
2023-03-05T10:40:52.641Z,100539.19
2023-03-05T10:43:46.486Z,100551.72
2023-03-05T10:46:24.363Z,100573.81
2023-03-05T10:49:02.630Z,100571.09
2023-03-05T10:51:55.736Z,100569.13
2023-03-05T10:54:32.755Z,100539.13
2023-03-05T10:57:25.695Z,100562.03
2023-03-05T11:00:06.270Z,100550.75
2023-03-05T11:02:55.140Z,100549.06
2023-03-05T11:05:38.405Z,100551.75
2023-03-05T11:08:29.733Z,100548.28
2023-03-05T11:11:10.144Z,100550.97
2023-03-05T11:13:52.822Z,100547.47
2023-03-05T11:16:30.361Z,100531.69
2023-03-05T11:19:16.878Z,100535.19
2023-03-05T11:22:07.015Z,100540.44
2023-03-05T11:24:38.493Z,100528.16
2023-03-05T11:27:43.196Z,100531.69
2023-03-05T11:30:26.325Z,100538.69
2023-03-05T11:33:10.658Z,100511.50
2023-03-05T11:35:43.891Z,100521.13
2023-03-05T11:38:19.404Z,100517.63
2023-03-05T11:40:56.063Z,100515.00
2023-03-05T11:43:30.989Z,100518.44
2023-03-05T11:46:03.647Z,100508.69
2023-03-05T11:48:37.577Z,100487.63
2023-03-05T11:51:19.671Z,100517.38
2023-03-05T11:53:57.817Z,100491.94
2023-03-05T11:56:39.355Z,100513.03
2023-03-05T11:59:22.205Z,100507.78
2023-03-05T12:01:55.256Z,100515.66
2023-03-05T12:04:27.411Z,100507.75
2023-03-05T12:07:02.771Z,100495.56
2023-03-05T12:09:42.320Z,100497.41
2023-03-05T12:12:38.017Z,100492.97
2023-03-05T12:15:12.164Z,100478.00
2023-03-05T12:18:07.304Z,100478.88
2023-03-05T12:21:02.760Z,100473.66
2023-03-05T12:23:58.861Z,100467.50
2023-03-05T12:27:09.601Z,100466.59
2023-03-05T12:29:45.762Z,100455.13
2023-03-05T12:32:23.210Z,100450.69
2023-03-05T12:34:58.138Z,100450.66
2023-03-05T12:37:29.597Z,100448.00
2023-03-05T12:40:08.528Z,100446.31
2023-03-05T12:42:45.876Z,100441.09
2023-03-05T12:45:19.131Z,100442.06
2023-03-05T12:47:56.227Z,100439.44
2023-03-05T12:50:30.147Z,100439.44
2023-03-05T12:53:04.428Z,100423.63
2023-03-05T12:55:45.723Z,100432.41
2023-03-05T12:58:29.223Z,100430.69
2023-03-05T13:01:38.022Z,100426.34
2023-03-05T13:04:19.805Z,100420.19
2023-03-05T13:07:13.976Z,100423.69
2023-03-05T13:09:57.237Z,100419.31
2023-03-05T13:12:29.643Z,100409.75
2023-03-05T13:15:04.309Z,100421.16
2023-03-05T13:17:44.372Z,100404.50
2023-03-05T13:20:37.445Z,100400.13
2023-03-05T13:23:26.464Z,100401.00
2023-03-05T13:25:59.452Z,100422.03
2023-03-05T13:28:32.531Z,100415.91
2023-03-05T13:31:13.205Z,100417.66
2023-03-05T13:33:57.561Z,100381.69
2023-03-05T13:36:28.903Z,100395.72
2023-03-05T13:39:00.703Z,100411.44
2023-03-05T13:41:31.988Z,100390.41
2023-03-05T13:44:03.528Z,100393.06
2023-03-05T13:46:38.595Z,100393.94
2023-03-05T13:49:28.932Z,100369.44
2023-03-05T13:52:00.363Z,100398.38
2023-03-05T13:54:32.055Z,100395.75
2023-03-05T13:57:08.361Z,100396.69
2023-03-05T13:59:39.636Z,100394.03
2023-03-05T14:02:19.794Z,100388.78
2023-03-05T14:04:51.242Z,100387.00
2023-03-05T14:07:41.374Z,100388.75
2023-03-05T14:10:36.747Z,100389.59
2023-03-05T14:13:20.603Z,100384.34
2023-03-05T14:16:15.768Z,100379.94
2023-03-05T14:18:58.750Z,100379.06
2023-03-05T14:21:51.976Z,100362.44
2023-03-05T14:24:28.296Z,100362.41
2023-03-05T14:27:13.218Z,100360.69
2023-03-05T14:29:46.458Z,100355.44
2023-03-05T14:32:34.764Z,100344.06
2023-03-05T14:35:06.714Z,100330.06
2023-03-05T14:37:42.672Z,100341.47
2023-03-05T14:40:13.946Z,100338.84
2023-03-05T14:43:02.110Z,100328.31
2023-03-05T14:45:37.233Z,100327.44
2023-03-05T14:48:10.216Z,100316.91
2023-03-05T14:50:53.243Z,100315.16
2023-03-05T14:53:37.467Z,100305.50
2023-03-05T14:56:23.877Z,100311.63
2023-03-05T14:58:57.407Z,100315.97
2023-03-05T15:01:28.869Z,100307.19
2023-03-05T15:04:01.011Z,100295.78
2023-03-05T15:06:39.006Z,100288.75
2023-03-05T15:09:12.099Z,100294.84
2023-03-05T15:11:47.336Z,100291.31
2023-03-05T15:14:18.626Z,100298.34
2023-03-05T15:16:50.084Z,100276.41
2023-03-05T15:19:21.361Z,100277.28
2023-03-05T15:21:53.059Z,100279.94
2023-03-05T15:24:26.389Z,100272.97
2023-03-05T15:26:57.757Z,100275.69
2023-03-05T15:29:29.212Z,100244.19
2023-03-05T15:32:04.796Z,100270.44
2023-03-05T15:34:36.333Z,100266.06
2023-03-05T15:37:07.737Z,100259.94
2023-03-05T15:39:41.055Z,100272.22
2023-03-05T15:42:12.434Z,100264.34
2023-03-05T15:44:43.717Z,100243.34
2023-03-05T15:47:16.087Z,100255.56
2023-03-05T15:49:47.353Z,100253.81
2023-03-05T15:52:18.694Z,100203.06
2023-03-05T15:54:50.102Z,100255.59
2023-03-05T15:57:24.674Z,100237.22
2023-03-05T15:59:56.042Z,100217.97
2023-03-05T16:02:29.464Z,100223.22
2023-03-05T16:05:00.752Z,100236.34
2023-03-05T16:07:35.506Z,100229.34
2023-03-05T16:10:07.597Z,100213.59
2023-03-05T16:12:42.066Z,100230.22
2023-03-05T16:15:17.343Z,100232.84
2023-03-05T16:17:54.058Z,100219.72
2023-03-05T16:20:25.458Z,100219.75
2023-03-05T16:22:56.745Z,100215.38
2023-03-05T16:25:28.383Z,100222.38
2023-03-05T16:28:00.282Z,100221.50
2023-03-05T16:30:33.178Z,100215.38
2023-03-05T16:33:04.886Z,100204.84
2023-03-05T16:35:36.406Z,100200.47
2023-03-05T16:38:08.377Z,100219.75
2023-03-05T16:41:06.137Z,100217.13
2023-03-05T16:43:31.090Z,100207.50
2023-03-05T16:46:02.366Z,100201.38
2023-03-05T16:48:35.666Z,100205.75
2023-03-05T16:51:07.116Z,100203.97
2023-03-05T16:53:39.606Z,100176.88
2023-03-05T16:56:11.454Z,100195.22
2023-03-05T16:58:42.802Z,100204.84
2023-03-05T17:01:17.990Z,100194.34
2023-03-05T17:03:50.183Z,100177.75
2023-03-05T17:06:24.660Z,100179.47
2023-03-05T17:08:57.410Z,100183.84
2023-03-05T17:11:28.757Z,100188.22
2023-03-05T17:14:00.218Z,100192.59
2023-03-05T17:16:31.858Z,100182.06
2023-03-05T17:19:03.373Z,100192.56
2023-03-05T17:21:34.695Z,100187.31
2023-03-05T17:24:06.273Z,100175.09
2023-03-05T17:26:37.989Z,100159.31
2023-03-05T17:29:09.625Z,100177.72
2023-03-05T17:31:41.038Z,100171.56
2023-03-05T17:34:12.385Z,100177.69
2023-03-05T17:36:45.161Z,100180.31
2023-03-05T17:39:18.921Z,100175.03
2023-03-05T17:41:50.186Z,100164.53
2023-03-05T17:44:21.479Z,100170.66
2023-03-05T17:46:52.811Z,100161.06
2023-03-05T17:49:24.138Z,100168.03
2023-03-05T17:51:55.934Z,100128.66
2023-03-05T17:54:27.265Z,100156.66
2023-03-05T17:56:58.687Z,100161.88
2023-03-05T17:59:30.149Z,100163.63
2023-03-05T18:02:02.168Z,100161.03
2023-03-05T18:04:33.993Z,100152.28
2023-03-05T18:07:05.753Z,100105.06
2023-03-05T18:09:37.066Z,100157.53
2023-03-05T18:12:08.463Z,100134.78
2023-03-05T18:14:39.744Z,100144.44
2023-03-05T18:17:11.008Z,100143.59
2023-03-05T18:19:42.618Z,100131.34
2023-03-05T18:22:14.015Z,100138.34
2023-03-05T18:24:45.364Z,100136.59
2023-03-05T18:27:16.824Z,100110.34
2023-03-05T18:29:50.073Z,100132.22
2023-03-05T18:32:22.112Z,100129.59
2023-03-05T18:34:53.508Z,100132.22
2023-03-05T18:37:24.766Z,100127.84
2023-03-05T18:39:57.820Z,100123.44
2023-03-05T18:42:29.198Z,100105.03
2023-03-05T18:45:01.156Z,100098.03
2023-03-05T18:47:33.362Z,100098.03
2023-03-05T18:50:06.681Z,100084.03
2023-03-05T18:52:38.045Z,100103.28
2023-03-05T18:55:16.295Z,100098.06
2023-03-05T18:57:49.047Z,100091.06
2023-03-05T19:00:24.179Z,100094.59
2023-03-05T19:02:56.379Z,100089.34
2023-03-05T19:05:29.652Z,100065.75
2023-03-05T19:08:01.175Z,100052.63
2023-03-05T19:10:32.886Z,100068.38
2023-03-05T19:13:28.658Z,100079.72
2023-03-05T19:16:02.288Z,100072.75
2023-03-05T19:18:38.828Z,100078.88
2023-03-05T19:21:10.215Z,100046.50
2023-03-05T19:23:41.622Z,100070.13
2023-03-05T19:26:12.922Z,100025.53
2023-03-05T19:28:44.256Z,100057.88
2023-03-05T19:31:15.746Z,100029.03
2023-03-05T19:33:47.047Z,100050.88
2023-03-05T19:36:18.456Z,100026.41
2023-03-05T19:38:49.820Z,100010.66
2023-03-05T19:41:21.657Z,100012.41
2023-03-05T19:43:53.165Z,99995.81
2023-03-05T19:46:24.917Z,99991.44
2023-03-05T19:48:56.576Z,100021.16
2023-03-05T19:51:28.356Z,100008.03
2023-03-05T19:53:59.742Z,99993.19
2023-03-05T19:56:31.051Z,99985.31
2023-03-05T19:59:02.401Z,99990.56
2023-03-05T20:01:34.121Z,100002.81
2023-03-05T20:04:05.767Z,99981.81
2023-03-05T20:06:37.109Z,99997.56
2023-03-05T20:09:09.492Z,99954.75
2023-03-05T20:11:41.033Z,99991.44
2023-03-05T20:14:14.381Z,99963.47
2023-03-05T20:16:45.792Z,99954.75
2023-03-05T20:19:18.195Z,99984.44
2023-03-05T20:21:49.815Z,99971.34
2023-03-05T20:24:22.272Z,99949.50
2023-03-05T20:26:53.635Z,99958.22
2023-03-05T20:29:24.972Z,99975.72
2023-03-05T20:31:56.889Z,99935.50
2023-03-05T20:34:30.260Z,99914.53
2023-03-05T20:37:01.632Z,99944.25
2023-03-05T20:39:33.159Z,99939.00
2023-03-05T20:42:04.630Z,99933.75
2023-03-05T20:44:35.994Z,99945.13
2023-03-05T20:47:25.887Z,99940.75
2023-03-05T20:49:57.170Z,99925.03
2023-03-05T20:52:28.448Z,99941.63
2023-03-05T20:54:59.805Z,99917.16
2023-03-05T20:57:31.502Z,99933.75
2023-03-05T21:00:03.963Z,99928.50
2023-03-05T21:02:35.827Z,99918.00
2023-03-05T21:05:07.379Z,99903.16
2023-03-05T21:07:38.883Z,99925.00
2023-03-05T21:10:10.853Z,99918.88
2023-03-05T21:12:43.836Z,99915.38
2023-03-05T21:15:18.892Z,99904.03
2023-03-05T21:17:50.271Z,99895.28
2023-03-05T21:20:28.025Z,99890.06
2023-03-05T21:22:59.512Z,99891.81
2023-03-05T21:25:32.507Z,99881.31
2023-03-05T21:28:11.416Z,99900.53
2023-03-05T21:30:47.982Z,99904.03
2023-03-05T21:33:25.509Z,99909.28
2023-03-05T21:35:59.864Z,99904.06
2023-03-05T21:38:33.788Z,99920.66
2023-03-05T21:41:05.763Z,99879.63
2023-03-05T21:43:37.053Z,99903.22
2023-03-05T21:46:08.422Z,99913.69
2023-03-05T21:48:39.714Z,99914.56
2023-03-05T21:51:13.539Z,99902.34
2023-03-05T21:53:44.857Z,99877.88
2023-03-05T21:56:17.184Z,99893.59
2023-03-05T21:58:48.811Z,99890.13
2023-03-05T22:01:21.378Z,99886.63
2023-03-05T22:03:53.816Z,99861.28
2023-03-05T22:06:25.494Z,99888.38
2023-03-05T22:08:56.773Z,99884.88
2023-03-05T22:11:28.077Z,99856.91
2023-03-05T22:13:59.360Z,99875.25
2023-03-05T22:16:30.654Z,99878.75
2023-03-05T22:19:02.106Z,99890.13
2023-03-05T22:21:33.531Z,99885.75
2023-03-05T22:24:05.044Z,99852.53
2023-03-05T22:26:39.716Z,99861.25
2023-03-05T22:29:12.851Z,99876.06
2023-03-05T22:31:45.121Z,99856.84
2023-03-05T22:34:16.484Z,99883.03
2023-03-05T22:36:47.808Z,99855.03
2023-03-05T22:39:19.082Z,99883.84
2023-03-05T22:41:50.378Z,99877.69
2023-03-05T22:44:23.909Z,99856.66
2023-03-05T22:46:56.360Z,99870.59
2023-03-05T22:49:27.628Z,99878.44
2023-03-05T22:51:58.987Z,99862.69
2023-03-05T22:54:30.383Z,99874.94
2023-03-05T22:57:01.653Z,99857.47
2023-03-05T22:59:32.917Z,99865.31
2023-03-05T23:02:04.423Z,99875.78
2023-03-05T23:04:49.227Z,99867.06
2023-03-05T23:07:23.561Z,99869.66
2023-03-05T23:10:06.630Z,99870.53
2023-03-05T23:12:41.339Z,99859.13
2023-03-05T23:15:15.472Z,99860.03
2023-03-05T23:17:47.163Z,99880.09
2023-03-05T23:20:25.195Z,99873.13
2023-03-05T23:22:56.984Z,99877.47
2023-03-05T23:25:30.526Z,99889.66
2023-03-05T23:28:03.203Z,99887.03
2023-03-05T23:30:37.772Z,99887.03
2023-03-05T23:33:20.161Z,99873.91
2023-03-05T23:35:56.917Z,99878.28
2023-03-05T23:38:30.010Z,99875.69
2023-03-05T23:41:03.229Z,99875.72
2023-03-05T23:43:35.109Z,99884.44
2023-03-05T23:46:10.496Z,99879.22
2023-03-05T23:48:41.794Z,99874.88
2023-03-05T23:51:13.059Z,99849.56
2023-03-05T23:53:44.558Z,99874.06
2023-03-05T23:56:15.962Z,99868.84
2023-03-05T23:58:47.249Z,99861.03
